sensor_id;sensor_type;location;lat;lon;timestamp;P1;durP1;ratioP1;P2;durP2;ratioP2
11100;SDS011;5604;50.722;7.078;2022-07-22T00:00:03;12.57;;;7.90;;
11100;SDS011;5604;50.722;7.078;2022-07-22T00:02:33;11.83;;;8.50;;
11100;SDS011;5604;50.722;7.078;2022-07-22T00:05:01;13.47;;;8.10;;
11100;SDS011;5604;50.722;7.078;2022-07-22T00:07:32;10.00;;;7.63;;
11100;SDS011;5604;50.722;7.078;2022-07-22T00:10:00;11.00;;;8.00;;
11100;SDS011;5604;50.722;7.078;2022-07-22T00:12:28;7.80;;;6.77;;
11100;SDS011;5604;50.722;7.078;2022-07-22T00:14:57;9.67;;;8.13;;
11100;SDS011;5604;50.722;7.078;2022-07-22T00:17:25;13.83;;;8.63;;
11100;SDS011;5604;50.722;7.078;2022-07-22T00:19:53;12.53;;;8.97;;
11100;SDS011;5604;50.722;7.078;2022-07-22T00:22:22;10.40;;;7.77;;
11100;SDS011;5604;50.722;7.078;2022-07-22T00:24:52;8.90;;;8.00;;
11100;SDS011;5604;50.722;7.078;2022-07-22T00:27:20;12.60;;;7.57;;
11100;SDS011;5604;50.722;7.078;2022-07-22T00:29:48;10.47;;;7.20;;
11100;SDS011;5604;50.722;7.078;2022-07-22T00:32:16;8.67;;;6.43;;
11100;SDS011;5604;50.722;7.078;2022-07-22T00:34:45;10.00;;;7.93;;
11100;SDS011;5604;50.722;7.078;2022-07-22T00:37:13;9.23;;;7.60;;
11100;SDS011;5604;50.722;7.078;2022-07-22T00:39:41;9.63;;;7.20;;
11100;SDS011;5604;50.722;7.078;2022-07-22T00:42:11;11.97;;;7.17;;
11100;SDS011;5604;50.722;7.078;2022-07-22T00:44:39;12.27;;;7.20;;
11100;SDS011;5604;50.722;7.078;2022-07-22T00:47:08;11.47;;;7.47;;
11100;SDS011;5604;50.722;7.078;2022-07-22T00:49:37;9.90;;;7.03;;
11100;SDS011;5604;50.722;7.078;2022-07-22T00:52:05;8.23;;;6.30;;
11100;SDS011;5604;50.722;7.078;2022-07-22T00:54:33;8.43;;;6.50;;
11100;SDS011;5604;50.722;7.078;2022-07-22T00:57:04;8.97;;;7.33;;
11100;SDS011;5604;50.722;7.078;2022-07-22T00:59:34;10.53;;;7.10;;
11100;SDS011;5604;50.722;7.078;2022-07-22T01:02:02;9.47;;;6.90;;
11100;SDS011;5604;50.722;7.078;2022-07-22T01:04:31;13.67;;;7.30;;
11100;SDS011;5604;50.722;7.078;2022-07-22T01:07:00;9.50;;;6.70;;
11100;SDS011;5604;50.722;7.078;2022-07-22T01:09:28;13.07;;;8.17;;
11100;SDS011;5604;50.722;7.078;2022-07-22T01:11:57;10.90;;;6.73;;
11100;SDS011;5604;50.722;7.078;2022-07-22T01:14:25;11.83;;;7.63;;
11100;SDS011;5604;50.722;7.078;2022-07-22T01:16:54;14.07;;;6.83;;
11100;SDS011;5604;50.722;7.078;2022-07-22T01:19:23;10.57;;;6.63;;
11100;SDS011;5604;50.722;7.078;2022-07-22T01:21:52;10.97;;;7.37;;
11100;SDS011;5604;50.722;7.078;2022-07-22T01:24:21;10.83;;;6.40;;
11100;SDS011;5604;50.722;7.078;2022-07-22T01:26:50;12.47;;;6.53;;
11100;SDS011;5604;50.722;7.078;2022-07-22T01:29:19;10.90;;;7.50;;
11100;SDS011;5604;50.722;7.078;2022-07-22T01:31:47;11.27;;;6.63;;
11100;SDS011;5604;50.722;7.078;2022-07-22T01:34:15;12.40;;;7.57;;
11100;SDS011;5604;50.722;7.078;2022-07-22T01:36:47;8.47;;;7.07;;
11100;SDS011;5604;50.722;7.078;2022-07-22T01:39:17;13.40;;;6.93;;
11100;SDS011;5604;50.722;7.078;2022-07-22T01:41:45;12.43;;;6.67;;
11100;SDS011;5604;50.722;7.078;2022-07-22T01:44:13;10.37;;;6.03;;
11100;SDS011;5604;50.722;7.078;2022-07-22T01:46:41;10.23;;;5.57;;
11100;SDS011;5604;50.722;7.078;2022-07-22T01:49:10;11.87;;;6.30;;
11100;SDS011;5604;50.722;7.078;2022-07-22T01:51:39;6.83;;;5.57;;
11100;SDS011;5604;50.722;7.078;2022-07-22T01:54:07;9.30;;;5.87;;
11100;SDS011;5604;50.722;7.078;2022-07-22T01:56:38;10.10;;;6.20;;
11100;SDS011;5604;50.722;7.078;2022-07-22T01:59:06;9.47;;;5.67;;
11100;SDS011;5604;50.722;7.078;2022-07-22T02:01:35;7.90;;;6.00;;
11100;SDS011;5604;50.722;7.078;2022-07-22T02:04:04;11.87;;;6.30;;
11100;SDS011;5604;50.722;7.078;2022-07-22T02:06:32;8.63;;;6.50;;
11100;SDS011;5604;50.722;7.078;2022-07-22T02:09:00;11.10;;;7.07;;
11100;SDS011;5604;50.722;7.078;2022-07-22T02:11:45;8.73;;;6.03;;
11100;SDS011;5604;50.722;7.078;2022-07-22T02:14:15;9.50;;;6.47;;
11100;SDS011;5604;50.722;7.078;2022-07-22T02:16:43;12.33;;;6.67;;
11100;SDS011;5604;50.722;7.078;2022-07-22T02:19:12;12.43;;;5.87;;
11100;SDS011;5604;50.722;7.078;2022-07-22T02:21:40;8.80;;;6.57;;
11100;SDS011;5604;50.722;7.078;2022-07-22T02:24:08;8.83;;;6.13;;
11100;SDS011;5604;50.722;7.078;2022-07-22T02:26:36;11.00;;;6.53;;
11100;SDS011;5604;50.722;7.078;2022-07-22T02:29:06;13.10;;;8.33;;
11100;SDS011;5604;50.722;7.078;2022-07-22T02:31:35;7.83;;;6.20;;
11100;SDS011;5604;50.722;7.078;2022-07-22T02:34:06;9.17;;;6.23;;
11100;SDS011;5604;50.722;7.078;2022-07-22T02:36:36;10.57;;;6.97;;
11100;SDS011;5604;50.722;7.078;2022-07-22T02:39:04;9.80;;;7.30;;
11100;SDS011;5604;50.722;7.078;2022-07-22T02:41:33;11.00;;;6.53;;
11100;SDS011;5604;50.722;7.078;2022-07-22T02:44:01;13.07;;;6.90;;
11100;SDS011;5604;50.722;7.078;2022-07-22T02:46:31;9.17;;;6.33;;
11100;SDS011;5604;50.722;7.078;2022-07-22T02:49:10;9.13;;;7.27;;
11100;SDS011;5604;50.722;7.078;2022-07-22T02:51:38;10.70;;;6.83;;
11100;SDS011;5604;50.722;7.078;2022-07-22T02:54:07;9.17;;;6.60;;
11100;SDS011;5604;50.722;7.078;2022-07-22T02:56:35;12.37;;;7.60;;
11100;SDS011;5604;50.722;7.078;2022-07-22T02:59:03;9.37;;;6.83;;
11100;SDS011;5604;50.722;7.078;2022-07-22T03:01:33;13.53;;;7.57;;
11100;SDS011;5604;50.722;7.078;2022-07-22T03:04:02;9.30;;;7.40;;
11100;SDS011;5604;50.722;7.078;2022-07-22T03:06:33;11.83;;;8.27;;
11100;SDS011;5604;50.722;7.078;2022-07-22T03:09:17;12.07;;;8.17;;
11100;SDS011;5604;50.722;7.078;2022-07-22T03:11:46;11.60;;;7.53;;
11100;SDS011;5604;50.722;7.078;2022-07-22T03:14:14;16.07;;;8.30;;
11100;SDS011;5604;50.722;7.078;2022-07-22T03:16:44;10.60;;;7.60;;
11100;SDS011;5604;50.722;7.078;2022-07-22T03:19:13;12.83;;;7.63;;
11100;SDS011;5604;50.722;7.078;2022-07-22T03:21:45;11.53;;;8.03;;
11100;SDS011;5604;50.722;7.078;2022-07-22T03:24:14;8.00;;;7.20;;
11100;SDS011;5604;50.722;7.078;2022-07-22T03:26:43;9.60;;;7.53;;
11100;SDS011;5604;50.722;7.078;2022-07-22T03:29:11;11.37;;;6.93;;
11100;SDS011;5604;50.722;7.078;2022-07-22T03:31:39;9.97;;;6.53;;
11100;SDS011;5604;50.722;7.078;2022-07-22T03:34:09;10.70;;;7.07;;
11100;SDS011;5604;50.722;7.078;2022-07-22T03:36:43;12.00;;;6.80;;
11100;SDS011;5604;50.722;7.078;2022-07-22T03:39:12;8.33;;;7.40;;
11100;SDS011;5604;50.722;7.078;2022-07-22T03:41:40;9.00;;;6.67;;
11100;SDS011;5604;50.722;7.078;2022-07-22T03:44:09;9.80;;;7.03;;
11100;SDS011;5604;50.722;7.078;2022-07-22T03:46:37;10.77;;;6.77;;
11100;SDS011;5604;50.722;7.078;2022-07-22T03:49:06;8.97;;;6.83;;
11100;SDS011;5604;50.722;7.078;2022-07-22T03:51:35;12.33;;;6.03;;
11100;SDS011;5604;50.722;7.078;2022-07-22T03:54:04;9.43;;;6.10;;
11100;SDS011;5604;50.722;7.078;2022-07-22T03:56:36;9.30;;;5.67;;
11100;SDS011;5604;50.722;7.078;2022-07-22T03:59:05;8.57;;;6.67;;
11100;SDS011;5604;50.722;7.078;2022-07-22T04:01:33;9.50;;;6.80;;
11100;SDS011;5604;50.722;7.078;2022-07-22T04:04:02;8.53;;;5.87;;
11100;SDS011;5604;50.722;7.078;2022-07-22T04:06:38;9.27;;;6.63;;
11100;SDS011;5604;50.722;7.078;2022-07-22T04:09:16;7.57;;;5.70;;
11100;SDS011;5604;50.722;7.078;2022-07-22T04:11:45;9.30;;;6.40;;
11100;SDS011;5604;50.722;7.078;2022-07-22T04:14:13;9.50;;;5.97;;
11100;SDS011;5604;50.722;7.078;2022-07-22T04:16:44;10.83;;;5.80;;
11100;SDS011;5604;50.722;7.078;2022-07-22T04:19:13;10.03;;;6.13;;
11100;SDS011;5604;50.722;7.078;2022-07-22T04:21:56;9.23;;;6.43;;
11100;SDS011;5604;50.722;7.078;2022-07-22T04:24:27;9.13;;;6.60;;
11100;SDS011;5604;50.722;7.078;2022-07-22T04:26:56;10.13;;;6.67;;
11100;SDS011;5604;50.722;7.078;2022-07-22T04:29:24;9.93;;;6.47;;
11100;SDS011;5604;50.722;7.078;2022-07-22T04:31:52;9.17;;;6.40;;
11100;SDS011;5604;50.722;7.078;2022-07-22T04:34:28;8.47;;;6.63;;
11100;SDS011;5604;50.722;7.078;2022-07-22T04:36:58;8.00;;;6.93;;
11100;SDS011;5604;50.722;7.078;2022-07-22T04:39:30;11.13;;;7.07;;
11100;SDS011;5604;50.722;7.078;2022-07-22T04:41:59;11.43;;;6.67;;
11100;SDS011;5604;50.722;7.078;2022-07-22T04:44:28;10.47;;;6.87;;
11100;SDS011;5604;50.722;7.078;2022-07-22T04:46:56;10.47;;;6.37;;
11100;SDS011;5604;50.722;7.078;2022-07-22T04:49:30;8.30;;;6.17;;
11100;SDS011;5604;50.722;7.078;2022-07-22T04:52:01;10.53;;;6.40;;
11100;SDS011;5604;50.722;7.078;2022-07-22T04:54:40;10.70;;;6.53;;
11100;SDS011;5604;50.722;7.078;2022-07-22T04:57:08;8.23;;;6.53;;
11100;SDS011;5604;50.722;7.078;2022-07-22T04:59:36;11.47;;;7.43;;
11100;SDS011;5604;50.722;7.078;2022-07-22T05:02:04;8.83;;;5.97;;
11100;SDS011;5604;50.722;7.078;2022-07-22T05:04:33;8.63;;;5.97;;
11100;SDS011;5604;50.722;7.078;2022-07-22T05:07:04;10.43;;;6.30;;
11100;SDS011;5604;50.722;7.078;2022-07-22T05:09:32;7.77;;;5.63;;
11100;SDS011;5604;50.722;7.078;2022-07-22T05:12:00;8.87;;;6.00;;
11100;SDS011;5604;50.722;7.078;2022-07-22T05:14:31;9.23;;;6.63;;
11100;SDS011;5604;50.722;7.078;2022-07-22T05:16:59;7.40;;;6.20;;
11100;SDS011;5604;50.722;7.078;2022-07-22T05:19:29;7.90;;;6.57;;
11100;SDS011;5604;50.722;7.078;2022-07-22T05:21:57;9.53;;;6.50;;
11100;SDS011;5604;50.722;7.078;2022-07-22T05:24:27;11.10;;;6.17;;
11100;SDS011;5604;50.722;7.078;2022-07-22T05:26:55;7.77;;;6.40;;
11100;SDS011;5604;50.722;7.078;2022-07-22T05:29:24;9.23;;;5.67;;
11100;SDS011;5604;50.722;7.078;2022-07-22T05:31:52;11.63;;;6.57;;
11100;SDS011;5604;50.722;7.078;2022-07-22T05:34:21;9.67;;;6.00;;
11100;SDS011;5604;50.722;7.078;2022-07-22T05:36:52;9.07;;;6.07;;
11100;SDS011;5604;50.722;7.078;2022-07-22T05:39:21;8.67;;;6.30;;
11100;SDS011;5604;50.722;7.078;2022-07-22T05:41:50;7.57;;;5.87;;
11100;SDS011;5604;50.722;7.078;2022-07-22T05:44:22;9.97;;;6.30;;
11100;SDS011;5604;50.722;7.078;2022-07-22T05:46:51;10.73;;;5.80;;
11100;SDS011;5604;50.722;7.078;2022-07-22T05:49:20;7.47;;;5.03;;
11100;SDS011;5604;50.722;7.078;2022-07-22T05:51:53;8.07;;;5.67;;
11100;SDS011;5604;50.722;7.078;2022-07-22T05:54:24;5.50;;;5.10;;
11100;SDS011;5604;50.722;7.078;2022-07-22T05:56:54;8.83;;;5.33;;
11100;SDS011;5604;50.722;7.078;2022-07-22T05:59:25;7.67;;;5.63;;
11100;SDS011;5604;50.722;7.078;2022-07-22T06:01:54;5.50;;;4.97;;
11100;SDS011;5604;50.722;7.078;2022-07-22T06:04:39;8.43;;;5.53;;
11100;SDS011;5604;50.722;7.078;2022-07-22T06:07:08;8.83;;;6.10;;
11100;SDS011;5604;50.722;7.078;2022-07-22T06:09:38;8.67;;;5.40;;
11100;SDS011;5604;50.722;7.078;2022-07-22T06:12:08;7.17;;;5.17;;
11100;SDS011;5604;50.722;7.078;2022-07-22T06:14:37;6.90;;;4.97;;
11100;SDS011;5604;50.722;7.078;2022-07-22T06:17:05;10.10;;;5.23;;
11100;SDS011;5604;50.722;7.078;2022-07-22T06:19:33;8.87;;;5.53;;
11100;SDS011;5604;50.722;7.078;2022-07-22T06:22:02;5.00;;;4.50;;
11100;SDS011;5604;50.722;7.078;2022-07-22T06:24:30;8.40;;;5.03;;
11100;SDS011;5604;50.722;7.078;2022-07-22T06:26:59;5.90;;;4.53;;
11100;SDS011;5604;50.722;7.078;2022-07-22T06:29:29;5.57;;;4.27;;
11100;SDS011;5604;50.722;7.078;2022-07-22T06:31:57;6.87;;;4.80;;
11100;SDS011;5604;50.722;7.078;2022-07-22T06:34:25;6.23;;;4.53;;
11100;SDS011;5604;50.722;7.078;2022-07-22T06:36:58;5.50;;;3.87;;
11100;SDS011;5604;50.722;7.078;2022-07-22T06:39:27;7.33;;;4.53;;
11100;SDS011;5604;50.722;7.078;2022-07-22T06:42:12;5.63;;;4.40;;
11100;SDS011;5604;50.722;7.078;2022-07-22T06:45:00;4.17;;;3.77;;
11100;SDS011;5604;50.722;7.078;2022-07-22T06:48:00;7.10;;;3.80;;
11100;SDS011;5604;50.722;7.078;2022-07-22T06:50:30;6.07;;;4.20;;
11100;SDS011;5604;50.722;7.078;2022-07-22T06:53:03;5.23;;;4.43;;
11100;SDS011;5604;50.722;7.078;2022-07-22T06:55:32;6.70;;;3.77;;
11100;SDS011;5604;50.722;7.078;2022-07-22T06:58:08;5.73;;;4.10;;
11100;SDS011;5604;50.722;7.078;2022-07-22T07:00:38;6.63;;;3.87;;
11100;SDS011;5604;50.722;7.078;2022-07-22T07:03:30;4.13;;;3.53;;
11100;SDS011;5604;50.722;7.078;2022-07-22T07:06:07;8.67;;;4.10;;
11100;SDS011;5604;50.722;7.078;2022-07-22T07:08:56;8.50;;;4.30;;
11100;SDS011;5604;50.722;7.078;2022-07-22T07:11:26;8.87;;;4.53;;
11100;SDS011;5604;50.722;7.078;2022-07-22T07:13:55;6.57;;;4.07;;
11100;SDS011;5604;50.722;7.078;2022-07-22T07:16:25;7.13;;;4.13;;
11100;SDS011;5604;50.722;7.078;2022-07-22T07:18:54;9.97;;;5.53;;
11100;SDS011;5604;50.722;7.078;2022-07-22T07:21:23;8.97;;;4.80;;
11100;SDS011;5604;50.722;7.078;2022-07-22T07:23:52;9.23;;;4.93;;
11100;SDS011;5604;50.722;7.078;2022-07-22T07:26:23;7.00;;;4.63;;
11100;SDS011;5604;50.722;7.078;2022-07-22T07:28:52;6.87;;;4.83;;
11100;SDS011;5604;50.722;7.078;2022-07-22T07:31:31;6.33;;;5.27;;
11100;SDS011;5604;50.722;7.078;2022-07-22T07:34:03;8.93;;;5.97;;
11100;SDS011;5604;50.722;7.078;2022-07-22T07:36:31;6.83;;;5.30;;
11100;SDS011;5604;50.722;7.078;2022-07-22T07:39:00;7.67;;;5.73;;
11100;SDS011;5604;50.722;7.078;2022-07-22T07:41:28;6.10;;;5.50;;
11100;SDS011;5604;50.722;7.078;2022-07-22T07:43:56;6.47;;;5.60;;
11100;SDS011;5604;50.722;7.078;2022-07-22T07:46:25;7.87;;;6.30;;
11100;SDS011;5604;50.722;7.078;2022-07-22T07:48:57;10.40;;;7.17;;
11100;SDS011;5604;50.722;7.078;2022-07-22T07:51:26;8.10;;;6.87;;
11100;SDS011;5604;50.722;7.078;2022-07-22T07:53:56;8.93;;;7.00;;
11100;SDS011;5604;50.722;7.078;2022-07-22T07:56:24;7.27;;;6.17;;
11100;SDS011;5604;50.722;7.078;2022-07-22T07:58:53;7.47;;;5.90;;
11100;SDS011;5604;50.722;7.078;2022-07-22T08:01:41;8.93;;;5.70;;
11100;SDS011;5604;50.722;7.078;2022-07-22T08:04:29;7.53;;;6.23;;
11100;SDS011;5604;50.722;7.078;2022-07-22T08:07:09;7.17;;;6.10;;
11100;SDS011;5604;50.722;7.078;2022-07-22T08:09:39;9.50;;;7.33;;
11100;SDS011;5604;50.722;7.078;2022-07-22T08:12:20;8.93;;;6.47;;
11100;SDS011;5604;50.722;7.078;2022-07-22T08:15:04;8.53;;;6.63;;
11100;SDS011;5604;50.722;7.078;2022-07-22T08:17:49;9.40;;;7.97;;
11100;SDS011;5604;50.722;7.078;2022-07-22T08:20:21;10.53;;;7.50;;
11100;SDS011;5604;50.722;7.078;2022-07-22T08:22:50;8.47;;;7.23;;
11100;SDS011;5604;50.722;7.078;2022-07-22T08:25:20;11.20;;;7.63;;
11100;SDS011;5604;50.722;7.078;2022-07-22T08:27:48;8.23;;;7.33;;
11100;SDS011;5604;50.722;7.078;2022-07-22T08:30:17;9.93;;;7.80;;
11100;SDS011;5604;50.722;7.078;2022-07-22T08:32:47;10.53;;;7.87;;
11100;SDS011;5604;50.722;7.078;2022-07-22T08:35:16;9.17;;;8.20;;
11100;SDS011;5604;50.722;7.078;2022-07-22T08:37:47;8.67;;;7.60;;
11100;SDS011;5604;50.722;7.078;2022-07-22T08:40:15;9.70;;;7.83;;
11100;SDS011;5604;50.722;7.078;2022-07-22T08:42:46;9.37;;;7.27;;
11100;SDS011;5604;50.722;7.078;2022-07-22T08:45:17;9.47;;;7.80;;
11100;SDS011;5604;50.722;7.078;2022-07-22T08:47:47;9.43;;;7.70;;
11100;SDS011;5604;50.722;7.078;2022-07-22T08:50:22;11.40;;;7.90;;
11100;SDS011;5604;50.722;7.078;2022-07-22T08:53:09;8.57;;;7.63;;
11100;SDS011;5604;50.722;7.078;2022-07-22T08:55:40;8.30;;;7.50;;
11100;SDS011;5604;50.722;7.078;2022-07-22T08:58:10;8.27;;;7.30;;
11100;SDS011;5604;50.722;7.078;2022-07-22T09:00:38;12.90;;;7.50;;
11100;SDS011;5604;50.722;7.078;2022-07-22T09:03:21;9.37;;;8.30;;
11100;SDS011;5604;50.722;7.078;2022-07-22T09:05:54;10.33;;;8.03;;
11100;SDS011;5604;50.722;7.078;2022-07-22T09:08:24;11.97;;;9.30;;
11100;SDS011;5604;50.722;7.078;2022-07-22T09:10:57;10.53;;;9.53;;
11100;SDS011;5604;50.722;7.078;2022-07-22T09:13:29;10.40;;;9.27;;
11100;SDS011;5604;50.722;7.078;2022-07-22T09:19:30;12.63;;;10.50;;
11100;SDS011;5604;50.722;7.078;2022-07-22T09:22:36;11.53;;;10.33;;
11100;SDS011;5604;50.722;7.078;2022-07-22T09:25:23;13.57;;;9.60;;
11100;SDS011;5604;50.722;7.078;2022-07-22T09:28:15;10.10;;;9.20;;
11100;SDS011;5604;50.722;7.078;2022-07-22T09:31:06;11.70;;;9.37;;
11100;SDS011;5604;50.722;7.078;2022-07-22T09:33:40;10.40;;;9.40;;
11100;SDS011;5604;50.722;7.078;2022-07-22T09:36:48;11.73;;;10.20;;
11100;SDS011;5604;50.722;7.078;2022-07-22T09:39:25;11.60;;;10.40;;
11100;SDS011;5604;50.722;7.078;2022-07-22T09:41:59;10.60;;;9.60;;
11100;SDS011;5604;50.722;7.078;2022-07-22T09:44:28;11.17;;;10.17;;
11100;SDS011;5604;50.722;7.078;2022-07-22T09:47:03;11.30;;;9.77;;
11100;SDS011;5604;50.722;7.078;2022-07-22T09:50:01;11.00;;;9.87;;
11100;SDS011;5604;50.722;7.078;2022-07-22T09:52:41;11.03;;;9.93;;
11100;SDS011;5604;50.722;7.078;2022-07-22T09:55:16;10.63;;;9.63;;
11100;SDS011;5604;50.722;7.078;2022-07-22T09:57:48;11.17;;;10.17;;
11100;SDS011;5604;50.722;7.078;2022-07-22T10:00:18;11.53;;;10.37;;
11100;SDS011;5604;50.722;7.078;2022-07-22T10:02:56;11.87;;;10.43;;
11100;SDS011;5604;50.722;7.078;2022-07-22T10:05:28;11.90;;;10.80;;
11100;SDS011;5604;50.722;7.078;2022-07-22T10:07:57;11.83;;;10.73;;
11100;SDS011;5604;50.722;7.078;2022-07-22T10:10:28;13.20;;;11.80;;
11100;SDS011;5604;50.722;7.078;2022-07-22T10:13:00;12.10;;;10.90;;
11100;SDS011;5604;50.722;7.078;2022-07-22T10:15:31;14.33;;;12.93;;
11100;SDS011;5604;50.722;7.078;2022-07-22T10:18:03;13.90;;;12.53;;
11100;SDS011;5604;50.722;7.078;2022-07-22T10:20:35;13.50;;;12.10;;
11100;SDS011;5604;50.722;7.078;2022-07-22T10:23:04;12.90;;;11.60;;
11100;SDS011;5604;50.722;7.078;2022-07-22T10:28:24;14.50;;;13.10;;
11100;SDS011;5604;50.722;7.078;2022-07-22T10:30:53;14.43;;;12.90;;
11100;SDS011;5604;50.722;7.078;2022-07-22T10:33:24;12.03;;;10.73;;
11100;SDS011;5604;50.722;7.078;2022-07-22T10:36:00;13.70;;;12.30;;
11100;SDS011;5604;50.722;7.078;2022-07-22T10:38:31;14.83;;;13.20;;
11100;SDS011;5604;50.722;7.078;2022-07-22T10:41:03;12.53;;;11.27;;
11100;SDS011;5604;50.722;7.078;2022-07-22T10:43:46;13.50;;;12.33;;
11100;SDS011;5604;50.722;7.078;2022-07-22T10:46:15;14.70;;;12.47;;
11100;SDS011;5604;50.722;7.078;2022-07-22T10:48:44;14.60;;;12.87;;
11100;SDS011;5604;50.722;7.078;2022-07-22T10:51:17;15.10;;;13.50;;
11100;SDS011;5604;50.722;7.078;2022-07-22T10:53:51;14.87;;;13.33;;
11100;SDS011;5604;50.722;7.078;2022-07-22T10:56:22;13.70;;;12.40;;
11100;SDS011;5604;50.722;7.078;2022-07-22T10:58:56;14.57;;;13.17;;
11100;SDS011;5604;50.722;7.078;2022-07-22T11:01:26;14.67;;;12.40;;
11100;SDS011;5604;50.722;7.078;2022-07-22T11:04:06;16.40;;;14.00;;
11100;SDS011;5604;50.722;7.078;2022-07-22T11:06:43;14.90;;;13.57;;
11100;SDS011;5604;50.722;7.078;2022-07-22T11:09:13;15.43;;;13.80;;
11100;SDS011;5604;50.722;7.078;2022-07-22T11:11:47;14.37;;;12.93;;
11100;SDS011;5604;50.722;7.078;2022-07-22T11:14:19;14.43;;;13.03;;
11100;SDS011;5604;50.722;7.078;2022-07-22T11:16:52;14.83;;;13.37;;
11100;SDS011;5604;50.722;7.078;2022-07-22T11:19:22;14.47;;;13.00;;
11100;SDS011;5604;50.722;7.078;2022-07-22T11:21:55;16.17;;;14.57;;
11100;SDS011;5604;50.722;7.078;2022-07-22T11:24:25;19.10;;;16.60;;
11100;SDS011;5604;50.722;7.078;2022-07-22T11:26:54;18.10;;;16.30;;
11100;SDS011;5604;50.722;7.078;2022-07-22T11:29:32;16.03;;;14.33;;
11100;SDS011;5604;50.722;7.078;2022-07-22T11:32:02;16.27;;;14.67;;
11100;SDS011;5604;50.722;7.078;2022-07-22T11:34:32;16.70;;;15.10;;
11100;SDS011;5604;50.722;7.078;2022-07-22T11:37:00;16.13;;;14.70;;
11100;SDS011;5604;50.722;7.078;2022-07-22T11:39:29;16.70;;;15.20;;
11100;SDS011;5604;50.722;7.078;2022-07-22T11:41:59;17.87;;;16.20;;
11100;SDS011;5604;50.722;7.078;2022-07-22T11:44:28;17.30;;;15.70;;
11100;SDS011;5604;50.722;7.078;2022-07-22T11:46:58;17.27;;;15.57;;
11100;SDS011;5604;50.722;7.078;2022-07-22T11:49:28;16.60;;;15.10;;
11100;SDS011;5604;50.722;7.078;2022-07-22T11:52:00;16.23;;;14.63;;
11100;SDS011;5604;50.722;7.078;2022-07-22T11:54:28;16.83;;;15.27;;
11100;SDS011;5604;50.722;7.078;2022-07-22T11:56:56;17.37;;;15.70;;
11100;SDS011;5604;50.722;7.078;2022-07-22T11:59:25;20.10;;;18.03;;
11100;SDS011;5604;50.722;7.078;2022-07-22T12:01:53;18.20;;;16.50;;
11100;SDS011;5604;50.722;7.078;2022-07-22T12:04:24;17.73;;;16.17;;
11100;SDS011;5604;50.722;7.078;2022-07-22T12:06:54;16.63;;;15.03;;
11100;SDS011;5604;50.722;7.078;2022-07-22T12:09:23;16.97;;;15.33;;
11100;SDS011;5604;50.722;7.078;2022-07-22T12:11:53;17.77;;;16.07;;
11100;SDS011;5604;50.722;7.078;2022-07-22T12:14:25;16.80;;;15.33;;
11100;SDS011;5604;50.722;7.078;2022-07-22T12:16:55;18.50;;;14.87;;
11100;SDS011;5604;50.722;7.078;2022-07-22T12:19:27;15.70;;;14.27;;
11100;SDS011;5604;50.722;7.078;2022-07-22T12:21:58;16.63;;;14.97;;
11100;SDS011;5604;50.722;7.078;2022-07-22T12:24:28;16.00;;;14.10;;
11100;SDS011;5604;50.722;7.078;2022-07-22T12:26:58;14.47;;;13.13;;
11100;SDS011;5604;50.722;7.078;2022-07-22T12:29:28;16.40;;;14.80;;
11100;SDS011;5604;50.722;7.078;2022-07-22T12:31:58;15.60;;;14.10;;
11100;SDS011;5604;50.722;7.078;2022-07-22T12:34:33;15.63;;;14.17;;
11100;SDS011;5604;50.722;7.078;2022-07-22T12:37:13;16.63;;;13.57;;
11100;SDS011;5604;50.722;7.078;2022-07-22T12:39:52;13.97;;;12.87;;
11100;SDS011;5604;50.722;7.078;2022-07-22T12:42:24;14.37;;;13.10;;
11100;SDS011;5604;50.722;7.078;2022-07-22T12:44:53;12.80;;;11.70;;
11100;SDS011;5604;50.722;7.078;2022-07-22T12:47:37;13.20;;;12.00;;
11100;SDS011;5604;50.722;7.078;2022-07-22T12:50:20;11.70;;;10.57;;
11100;SDS011;5604;50.722;7.078;2022-07-22T12:52:52;13.27;;;11.97;;
11100;SDS011;5604;50.722;7.078;2022-07-22T12:55:42;12.67;;;11.57;;
11100;SDS011;5604;50.722;7.078;2022-07-22T12:58:12;12.43;;;11.30;;
11100;SDS011;5604;50.722;7.078;2022-07-22T13:00:43;11.20;;;10.30;;
11100;SDS011;5604;50.722;7.078;2022-07-22T13:03:12;13.17;;;11.97;;
11100;SDS011;5604;50.722;7.078;2022-07-22T13:05:42;12.53;;;11.33;;
11100;SDS011;5604;50.722;7.078;2022-07-22T13:08:10;13.60;;;12.43;;
11100;SDS011;5604;50.722;7.078;2022-07-22T13:10:39;15.87;;;14.20;;
11100;SDS011;5604;50.722;7.078;2022-07-22T13:13:07;13.13;;;11.93;;
11100;SDS011;5604;50.722;7.078;2022-07-22T13:15:35;14.10;;;12.80;;
11100;SDS011;5604;50.722;7.078;2022-07-22T13:18:05;13.87;;;12.43;;
11100;SDS011;5604;50.722;7.078;2022-07-22T13:20:33;12.80;;;11.60;;
11100;SDS011;5604;50.722;7.078;2022-07-22T13:23:03;12.53;;;10.50;;
11100;SDS011;5604;50.722;7.078;2022-07-22T13:25:31;12.83;;;11.53;;
11100;SDS011;5604;50.722;7.078;2022-07-22T13:28:00;11.10;;;10.10;;
11100;SDS011;5604;50.722;7.078;2022-07-22T13:30:28;11.73;;;10.63;;
11100;SDS011;5604;50.722;7.078;2022-07-22T13:32:58;12.40;;;11.13;;
11100;SDS011;5604;50.722;7.078;2022-07-22T13:35:26;11.50;;;10.50;;
11100;SDS011;5604;50.722;7.078;2022-07-22T13:37:56;10.73;;;9.63;;
11100;SDS011;5604;50.722;7.078;2022-07-22T13:40:26;10.57;;;9.67;;
11100;SDS011;5604;50.722;7.078;2022-07-22T13:42:55;11.43;;;10.27;;
11100;SDS011;5604;50.722;7.078;2022-07-22T13:45:25;10.50;;;9.50;;
11100;SDS011;5604;50.722;7.078;2022-07-22T13:47:53;11.20;;;9.17;;
11100;SDS011;5604;50.722;7.078;2022-07-22T13:50:21;11.33;;;10.23;;
11100;SDS011;5604;50.722;7.078;2022-07-22T13:52:50;9.73;;;8.50;;
11100;SDS011;5604;50.722;7.078;2022-07-22T13:55:18;10.97;;;9.97;;
11100;SDS011;5604;50.722;7.078;2022-07-22T13:57:48;12.30;;;10.77;;
11100;SDS011;5604;50.722;7.078;2022-07-22T14:00:17;10.77;;;9.77;;
11100;SDS011;5604;50.722;7.078;2022-07-22T14:02:45;9.97;;;9.07;;
11100;SDS011;5604;50.722;7.078;2022-07-22T14:05:14;10.20;;;9.07;;
11100;SDS011;5604;50.722;7.078;2022-07-22T14:07:42;9.07;;;8.20;;
11100;SDS011;5604;50.722;7.078;2022-07-22T14:10:11;9.17;;;8.37;;
11100;SDS011;5604;50.722;7.078;2022-07-22T14:12:40;11.13;;;8.73;;
11100;SDS011;5604;50.722;7.078;2022-07-22T14:15:10;8.57;;;7.77;;
11100;SDS011;5604;50.722;7.078;2022-07-22T14:17:41;8.30;;;7.60;;
11100;SDS011;5604;50.722;7.078;2022-07-22T14:20:11;8.87;;;7.60;;
11100;SDS011;5604;50.722;7.078;2022-07-22T14:22:39;8.07;;;7.27;;
11100;SDS011;5604;50.722;7.078;2022-07-22T14:25:08;7.40;;;6.70;;
11100;SDS011;5604;50.722;7.078;2022-07-22T14:27:36;7.80;;;7.10;;
11100;SDS011;5604;50.722;7.078;2022-07-22T14:30:05;8.90;;;8.00;;
11100;SDS011;5604;50.722;7.078;2022-07-22T14:32:35;7.17;;;6.47;;
11100;SDS011;5604;50.722;7.078;2022-07-22T14:35:04;8.33;;;7.50;;
11100;SDS011;5604;50.722;7.078;2022-07-22T14:37:33;8.00;;;7.20;;
11100;SDS011;5604;50.722;7.078;2022-07-22T14:40:02;7.47;;;6.77;;
11100;SDS011;5604;50.722;7.078;2022-07-22T14:42:31;8.10;;;7.30;;
11100;SDS011;5604;50.722;7.078;2022-07-22T14:44:59;8.10;;;6.87;;
11100;SDS011;5604;50.722;7.078;2022-07-22T14:47:27;7.23;;;6.50;;
11100;SDS011;5604;50.722;7.078;2022-07-22T14:49:57;7.37;;;6.67;;
11100;SDS011;5604;50.722;7.078;2022-07-22T14:52:25;8.37;;;7.43;;
11100;SDS011;5604;50.722;7.078;2022-07-22T14:54:54;8.57;;;7.53;;
11100;SDS011;5604;50.722;7.078;2022-07-22T14:57:22;8.27;;;7.00;;
11100;SDS011;5604;50.722;7.078;2022-07-22T14:59:52;7.87;;;7.07;;
11100;SDS011;5604;50.722;7.078;2022-07-22T15:02:20;7.30;;;6.60;;
11100;SDS011;5604;50.722;7.078;2022-07-22T15:04:48;7.13;;;6.53;;
11100;SDS011;5604;50.722;7.078;2022-07-22T15:07:18;7.57;;;6.73;;
11100;SDS011;5604;50.722;7.078;2022-07-22T15:09:53;8.37;;;7.03;;
11100;SDS011;5604;50.722;7.078;2022-07-22T15:12:21;8.07;;;7.17;;
11100;SDS011;5604;50.722;7.078;2022-07-22T15:15:09;7.83;;;6.70;;
11100;SDS011;5604;50.722;7.078;2022-07-22T15:17:38;8.70;;;7.80;;
11100;SDS011;5604;50.722;7.078;2022-07-22T15:20:07;8.53;;;7.60;;